Time;durP1;ratioP1;P1;durP2;ratioP2;P2;SDS_P1;SDS_P2;PMS_P1;PMS_P2;Temp;Humidity;BMP_temperature;BMP_pressure;BME280_temperature;BME280_humidity;BME280_pressure;Samples;Min_cycle;Max_cycle;Signal;HPM_P1;HPM_P2
2023/12/07 00:01:40;;;;;;;13.27;8.57;;;2.20;99.90;;;;;;4878580;28;93340;-31
2023/12/07 00:04:05;;;;;;;11.95;7.63;;;2.20;99.90;;;;;;4878579;28;94827;-31
2023/12/07 00:06:31;;;;;;;10.38;6.78;;;2.20;99.90;;;;;;4879436;28;95791;-30
2023/12/07 00:08:58;;;;;;;11.68;7.10;;;2.20;99.90;;;;;;4878945;28;93961;-31
2023/12/07 00:11:23;;;;;;;10.00;6.93;;;2.20;99.90;;;;;;4878646;28;92738;-31
2023/12/07 00:13:49;;;;;;;13.20;7.38;;;2.20;99.90;;;;;;4877803;28;96952;-30
2023/12/07 00:16:15;;;;;;;10.43;7.07;;;2.20;99.90;;;;;;4878559;28;95086;-31
2023/12/07 00:18:40;;;;;;;11.75;7.60;;;2.20;99.90;;;;;;4879640;28;93355;-31
2023/12/07 00:21:08;;;;;;;14.98;7.43;;;2.20;99.90;;;;;;4877868;28;92160;-31
2023/12/07 00:23:34;;;;;;;11.48;9.15;;;2.20;99.90;;;;;;4878787;28;94932;-34
2023/12/07 00:25:59;;;;;;;9.27;6.05;;;2.20;99.90;;;;;;4878262;28;94942;-31
2023/12/07 00:28:25;;;;;;;11.77;6.93;;;2.20;99.90;;;;;;4879243;28;94966;-33
2023/12/07 00:30:50;;;;;;;10.75;7.05;;;2.10;99.90;;;;;;4879100;28;91426;-29
2023/12/07 00:33:16;;;;;;;11.50;6.90;;;2.20;99.90;;;;;;4877536;28;93546;-29
2023/12/07 00:35:42;;;;;;;12.70;6.93;;;2.10;99.90;;;;;;4878834;28;94498;-29
2023/12/07 00:38:08;;;;;;;12.48;6.72;;;2.20;99.90;;;;;;4878749;28;94102;-31
2023/12/07 00:40:36;;;;;;;8.30;5.70;;;2.20;99.90;;;;;;4878947;28;93889;-31
2023/12/07 00:43:03;;;;;;;14.10;7.78;;;2.20;99.90;;;;;;4878603;28;95553;-31
2023/12/07 00:45:29;;;;;;;13.05;6.95;;;2.20;99.90;;;;;;4878187;28;94280;-30
2023/12/07 00:47:54;;;;;;;9.27;7.05;;;2.20;99.90;;;;;;4878317;28;93995;-29
2023/12/07 00:50:20;;;;;;;9.20;6.80;;;2.20;99.90;;;;;;4878915;28;92726;-32
2023/12/07 00:52:45;;;;;;;8.75;5.25;;;2.20;99.90;;;;;;4877066;28;95977;-32
2023/12/07 00:55:11;;;;;;;9.98;6.82;;;2.10;99.90;;;;;;4878059;28;94598;-30
2023/12/07 00:57:37;;;;;;;9.45;5.53;;;2.20;99.90;;;;;;4878875;28;93302;-32
2023/12/07 01:00:03;;;;;;;10.77;7.20;;;2.20;99.90;;;;;;4881069;28;93360;-31
2023/12/07 01:02:29;;;;;;;11.40;7.15;;;2.10;99.90;;;;;;4880864;28;95365;-33
2023/12/07 01:04:55;;;;;;;11.05;6.43;;;2.10;99.90;;;;;;4880687;28;95892;-32
2023/12/07 01:07:21;;;;;;;10.85;6.75;;;2.10;99.90;;;;;;4882607;28;93044;-31
2023/12/07 01:09:47;;;;;;;8.32;5.60;;;2.10;99.90;;;;;;4881760;28;94504;-31
2023/12/07 01:12:12;;;;;;;12.95;7.82;;;2.10;99.90;;;;;;4880661;28;95004;-33
2023/12/07 01:14:38;;;;;;;10.27;7.00;;;2.10;99.90;;;;;;4881630;28;93371;-29
2023/12/07 01:17:04;;;;;;;10.43;5.88;;;2.10;99.90;;;;;;4881360;28;94199;-30
2023/12/07 01:19:29;;;;;;;8.25;6.30;;;2.10;99.90;;;;;;4882176;28;92917;-32
2023/12/07 01:21:55;;;;;;;10.23;6.95;;;2.10;99.90;;;;;;4881321;28;94750;-32
2023/12/07 01:24:20;;;;;;;11.15;9.77;;;2.10;99.90;;;;;;4880872;28;94795;-33
2023/12/07 01:26:46;;;;;;;20.17;7.93;;;2.10;99.90;;;;;;4880965;28;95494;-30
2023/12/07 01:29:13;;;;;;;12.10;7.90;;;2.10;99.90;;;;;;4880782;28;93409;-31
2023/12/07 01:31:39;;;;;;;10.32;6.70;;;2.10;99.90;;;;;;4881683;28;94561;-31
2023/12/07 01:34:05;;;;;;;11.15;7.38;;;2.10;99.90;;;;;;4880583;28;94181;-31
2023/12/07 01:36:31;;;;;;;12.13;7.35;;;2.10;99.90;;;;;;4881400;28;92995;-33
2023/12/07 01:38:56;;;;;;;10.02;6.60;;;2.10;99.90;;;;;;4880857;28;93475;-30
2023/12/07 01:41:22;;;;;;;11.05;7.93;;;2.10;99.90;;;;;;4880903;28;95073;-30
2023/12/07 01:43:48;;;;;;;8.50;7.47;;;2.10;99.90;;;;;;4875564;28;94744;-32
2023/12/07 01:46:15;;;;;;;9.88;7.03;;;2.10;99.90;;;;;;4880917;28;94884;-32
2023/12/07 01:48:41;;;;;;;15.68;8.45;;;2.10;99.90;;;;;;4880752;28;92863;-31
2023/12/07 01:51:08;;;;;;;20.25;9.77;;;2.10;99.90;;;;;;4880247;28;96181;-32
2023/12/07 01:53:34;;;;;;;11.20;7.97;;;2.10;99.90;;;;;;4880720;28;95437;-31
2023/12/07 01:56:00;;;;;;;11.65;7.35;;;2.10;99.90;;;;;;4881145;28;94663;-33
2023/12/07 01:58:25;;;;;;;11.80;8.82;;;2.10;99.90;;;;;;4880785;28;94476;-31
2023/12/07 02:00:52;;;;;;;12.93;7.75;;;2.10;99.90;;;;;;4880350;28;95027;-29
2023/12/07 02:03:18;;;;;;;13.73;7.53;;;2.10;99.90;;;;;;4880621;28;96222;-30
2023/12/07 02:05:47;;;;;;;10.45;7.78;;;2.10;99.90;;;;;;4881742;28;94561;-29
2023/12/07 02:08:12;;;;;;;14.25;7.65;;;2.20;99.90;;;;;;4879454;28;93299;-31
2023/12/07 02:10:39;;;;;;;14.05;9.30;;;2.20;99.90;;;;;;4880428;28;94828;-31
2023/12/07 02:13:05;;;;;;;13.57;7.22;;;2.20;99.90;;;;;;4880424;28;94412;-30
2023/12/07 02:15:31;;;;;;;11.77;7.30;;;2.20;99.90;;;;;;4880311;28;93075;-30
2023/12/07 02:18:15;;;;;;;11.77;6.97;;;2.20;99.90;;;;;;4881097;28;93847;-33
2023/12/07 02:21:21;;;;;;;14.40;8.38;;;2.10;99.90;;;;;;4880579;28;94654;-32
2023/12/07 02:23:49;;;;;;;18.73;7.63;;;2.20;99.90;;;;;;4880642;28;93247;-32
2023/12/07 02:26:20;;;;;;;14.93;9.95;;;2.10;99.90;;;;;;4880165;28;94674;-29
2023/12/07 02:28:45;;;;;;;13.60;8.63;;;2.10;99.90;;;;;;4880108;28;92176;-29
2023/12/07 02:31:11;;;;;;;12.50;7.78;;;2.10;99.90;;;;;;4880426;28;95263;-30
2023/12/07 02:33:37;;;;;;;16.02;8.45;;;2.10;99.90;;;;;;4880400;28;94691;-29
2023/12/07 02:36:05;;;;;;;12.55;8.63;;;2.20;99.90;;;;;;4879973;28;93022;-30
2023/12/07 02:38:31;;;;;;;10.02;7.38;;;2.10;99.90;;;;;;4880259;28;92852;-33
2023/12/07 02:40:58;;;;;;;13.02;8.18;;;2.10;99.90;;;;;;4879824;28;95739;-31
2023/12/07 02:43:24;;;;;;;11.98;8.68;;;2.10;99.90;;;;;;4879815;28;95454;-32
2023/12/07 02:45:50;;;;;;;15.82;9.35;;;2.10;99.90;;;;;;4880459;28;92170;-29
2023/12/07 02:48:17;;;;;;;12.45;8.55;;;2.10;99.90;;;;;;4879839;28;93132;-30
2023/12/07 02:50:43;;;;;;;12.70;8.10;;;2.10;99.90;;;;;;4877795;28;94537;-30
2023/12/07 02:53:08;;;;;;;10.80;8.48;;;2.10;99.90;;;;;;4879914;28;94178;-31
2023/12/07 02:55:34;;;;;;;13.55;7.70;;;2.10;99.90;;;;;;4880166;28;92983;-31
2023/12/07 02:58:00;;;;;;;16.17;9.70;;;2.10;99.90;;;;;;4880347;28;92430;-33
2023/12/07 03:00:25;;;;;;;10.55;7.82;;;2.10;99.90;;;;;;4879200;28;94665;-32
2023/12/07 03:02:51;;;;;;;11.88;7.70;;;2.10;99.90;;;;;;4879755;28;94562;-32
2023/12/07 03:05:19;;;;;;;17.23;8.75;;;2.10;99.90;;;;;;4880297;28;95306;-33
2023/12/07 03:07:45;;;;;;;16.42;9.30;;;2.10;99.90;;;;;;4879781;28;93299;-32
2023/12/07 03:10:10;;;;;;;12.75;8.88;;;2.10;99.90;;;;;;4880070;28;94645;-33
2023/12/07 03:12:36;;;;;;;12.48;8.13;;;2.10;99.90;;;;;;4862456;28;96227;-33
2023/12/07 03:15:02;;;;;;;10.35;6.95;;;2.10;99.90;;;;;;4879871;28;94447;-30
2023/12/07 03:17:28;;;;;;;13.20;8.00;;;2.00;99.90;;;;;;4880066;28;92910;-30
2023/12/07 03:19:54;;;;;;;12.45;8.60;;;2.10;99.90;;;;;;4867565;28;95294;-31
2023/12/07 03:22:19;;;;;;;14.73;9.88;;;2.10;99.90;;;;;;4879452;28;94671;-34
2023/12/07 03:24:48;;;;;;;15.70;8.38;;;2.10;99.90;;;;;;4881196;28;93203;-32
2023/12/07 03:27:14;;;;;;;18.98;9.65;;;2.10;99.90;;;;;;4879362;28;93566;-30
2023/12/07 03:29:39;;;;;;;11.23;7.72;;;2.10;99.90;;;;;;4878728;28;96419;-31
2023/12/07 03:32:05;;;;;;;13.13;7.82;;;2.00;99.90;;;;;;4878615;28;95472;-32
2023/12/07 03:34:31;;;;;;;14.20;8.68;;;2.00;99.90;;;;;;4879528;28;94215;-32
2023/12/07 03:36:56;;;;;;;14.45;10.45;;;2.00;99.90;;;;;;4879368;28;93165;-30
2023/12/07 03:39:22;;;;;;;11.20;8.45;;;2.00;99.90;;;;;;4878027;28;94788;-31
2023/12/07 03:41:49;;;;;;;13.40;9.60;;;2.00;99.90;;;;;;4879201;28;94736;-30
2023/12/07 03:44:15;;;;;;;19.13;9.85;;;2.00;99.90;;;;;;4879518;28;94140;-30
2023/12/07 03:46:41;;;;;;;13.80;7.90;;;1.90;99.90;;;;;;4879333;28;92517;-34
2023/12/07 03:49:07;;;;;;;13.63;8.10;;;1.90;99.90;;;;;;4878866;28;95227;-32
2023/12/07 03:51:32;;;;;;;16.35;8.68;;;1.90;99.90;;;;;;4879015;28;94461;-31
2023/12/07 03:53:58;;;;;;;15.63;9.40;;;1.90;99.90;;;;;;4878085;28;93576;-33
2023/12/07 03:56:28;;;;;;;15.73;9.25;;;1.90;99.90;;;;;;4880058;28;93888;-30
2023/12/07 03:58:55;;;;;;;17.27;8.88;;;1.90;99.90;;;;;;4879326;28;94877;-30
2023/12/07 04:01:25;;;;;;;15.38;8.85;;;1.80;99.90;;;;;;4878720;28;94885;-32
2023/12/07 04:03:51;;;;;;;20.10;9.80;;;1.90;99.90;;;;;;4879323;28;93344;-32
2023/12/07 04:06:18;;;;;;;12.15;10.30;;;1.90;99.90;;;;;;4878721;28;92832;-33
2023/12/07 04:08:44;;;;;;;13.85;9.25;;;1.80;99.90;;;;;;4878993;28;95222;-30
2023/12/07 04:11:09;;;;;;;16.13;9.48;;;1.80;99.90;;;;;;4879028;28;94102;-32
2023/12/07 04:13:35;;;;;;;16.42;9.20;;;1.80;99.90;;;;;;4878869;28;94493;-33
2023/12/07 04:16:00;;;;;;;14.77;8.82;;;1.80;99.90;;;;;;4878645;28;94313;-32
2023/12/07 04:18:26;;;;;;;13.98;9.90;;;1.80;99.90;;;;;;4878309;28;95730;-34
2023/12/07 04:20:52;;;;;;;12.55;9.15;;;1.80;99.90;;;;;;4878877;28;95625;-32
2023/12/07 04:23:17;;;;;;;18.42;12.25;;;1.70;99.90;;;;;;4878645;28;94349;-30
2023/12/07 04:25:43;;;;;;;17.52;9.65;;;1.70;99.90;;;;;;4878525;28;94372;-29
2023/12/07 04:28:09;;;;;;;16.20;9.73;;;1.70;99.90;;;;;;4865940;28;95609;-33
2023/12/07 04:30:34;;;;;;;15.25;10.30;;;1.70;99.90;;;;;;4878492;28;94694;-32
2023/12/07 04:33:00;;;;;;;14.98;9.45;;;1.60;99.90;;;;;;4877615;28;94819;-31
2023/12/07 04:35:25;;;;;;;18.83;12.13;;;1.60;99.90;;;;;;4881832;28;93614;-32
2023/12/07 04:37:51;;;;;;;17.60;10.13;;;1.60;99.90;;;;;;4881437;28;94418;-30
2023/12/07 04:40:16;;;;;;;16.67;10.43;;;1.60;99.90;;;;;;4880395;28;95021;-33
2023/12/07 04:42:42;;;;;;;19.83;11.68;;;1.60;99.90;;;;;;4868593;28;95493;-34
2023/12/07 04:45:08;;;;;;;15.95;10.00;;;1.50;99.90;;;;;;4881277;28;94392;-31
2023/12/07 04:47:34;;;;;;;16.50;9.82;;;1.60;99.90;;;;;;4868534;28;94871;-32
2023/12/07 04:49:59;;;;;;;18.45;10.73;;;1.50;99.90;;;;;;4881713;28;95964;-32
2023/12/07 04:52:25;;;;;;;24.95;12.48;;;1.50;99.90;;;;;;4879423;28;94595;-32
2023/12/07 04:54:50;;;;;;;20.17;10.13;;;1.50;99.90;;;;;;4881823;28;92511;-32
2023/12/07 04:57:16;;;;;;;20.63;10.30;;;1.50;99.90;;;;;;4880572;28;94700;-33
2023/12/07 04:59:46;;;;;;;17.88;11.20;;;1.40;99.90;;;;;;4881223;28;94858;-30
2023/12/07 05:02:15;;;;;;;15.38;11.23;;;1.40;99.90;;;;;;4880983;28;92342;-31
2023/12/07 05:04:41;;;;;;;20.55;12.65;;;1.50;99.90;;;;;;4881109;28;92674;-32
2023/12/07 05:07:06;;;;;;;21.27;11.50;;;1.40;99.90;;;;;;4880054;28;96149;-31
2023/12/07 05:09:32;;;;;;;21.98;13.68;;;1.40;99.90;;;;;;4880355;28;95556;-32
2023/12/07 05:11:58;;;;;;;25.27;13.82;;;1.40;99.90;;;;;;4881867;28;93372;-30
2023/12/07 05:14:24;;;;;;;19.20;12.55;;;1.40;99.90;;;;;;4880315;28;93108;-32
2023/12/07 05:16:58;;;;;;;23.88;12.60;;;1.40;99.90;;;;;;4881288;28;95137;-32
2023/12/07 05:19:24;;;;;;;20.98;13.70;;;1.40;99.90;;;;;;4880642;28;94606;-29
2023/12/07 05:21:51;;;;;;;17.35;13.05;;;1.40;99.90;;;;;;4882015;28;93241;-32
2023/12/07 05:24:17;;;;;;;17.83;12.43;;;1.40;99.90;;;;;;4880505;28;91399;-30
2023/12/07 05:26:43;;;;;;;23.85;13.90;;;1.40;99.90;;;;;;4880788;28;94802;-30
2023/12/07 05:29:09;;;;;;;21.58;12.55;;;1.40;99.90;;;;;;4880154;28;95007;-32
2023/12/07 05:31:35;;;;;;;18.20;10.80;;;1.40;99.90;;;;;;4878943;28;95579;-30
2023/12/07 05:34:01;;;;;;;18.60;12.23;;;1.40;99.90;;;;;;4879272;28;94401;-31
2023/12/07 05:36:27;;;;;;;18.27;12.32;;;1.40;99.90;;;;;;4880789;28;95766;-29
2023/12/07 05:38:52;;;;;;;17.25;11.10;;;1.40;99.90;;;;;;4879770;28;94529;-29
2023/12/07 05:41:18;;;;;;;19.63;12.98;;;1.40;99.90;;;;;;4880779;28;94376;-32
2023/12/07 05:43:43;;;;;;;22.15;12.40;;;1.40;99.90;;;;;;4880075;28;92818;-33
2023/12/07 05:46:09;;;;;;;23.23;12.50;;;1.40;99.90;;;;;;4879410;28;94551;-32
2023/12/07 05:48:35;;;;;;;19.40;13.45;;;1.40;99.90;;;;;;4880992;28;94766;-29
2023/12/07 05:51:02;;;;;;;22.42;14.30;;;1.40;99.90;;;;;;4880069;28;94218;-30
2023/12/07 05:53:28;;;;;;;18.45;13.70;;;1.40;99.90;;;;;;4880373;28;93931;-32
2023/12/07 05:55:54;;;;;;;26.00;12.35;;;1.40;99.90;;;;;;4879424;28;95658;-30
2023/12/07 05:58:20;;;;;;;22.75;13.88;;;1.40;99.90;;;;;;4879784;28;94974;-32
2023/12/07 06:00:46;;;;;;;23.65;13.00;;;1.40;99.90;;;;;;4880303;28;94214;-33
2023/12/07 06:03:13;;;;;;;18.80;12.18;;;1.40;99.90;;;;;;4879193;28;94590;-30
2023/12/07 06:05:39;;;;;;;24.95;12.60;;;1.40;99.90;;;;;;4879888;28;94894;-29
2023/12/07 06:08:05;;;;;;;22.55;14.35;;;1.30;99.90;;;;;;4879929;28;94839;-29
2023/12/07 06:10:30;;;;;;;22.45;13.30;;;1.30;99.90;;;;;;4880184;28;93459;-31
2023/12/07 06:12:58;;;;;;;21.75;12.88;;;1.30;99.90;;;;;;4879908;28;92841;-32
2023/12/07 06:15:24;;;;;;;24.42;15.18;;;1.30;99.90;;;;;;4880340;28;94419;-30
2023/12/07 06:17:50;;;;;;;20.77;13.68;;;1.30;99.90;;;;;;4878690;28;95165;-32
2023/12/07 06:20:15;;;;;;;16.85;13.07;;;1.20;99.90;;;;;;4880086;28;94195;-30
2023/12/07 06:22:41;;;;;;;22.35;12.65;;;1.20;99.90;;;;;;4879770;28;94381;-31
2023/12/07 06:25:08;;;;;;;27.30;15.90;;;1.20;99.90;;;;;;4879343;28;94561;-33
2023/12/07 06:27:35;;;;;;;28.63;14.57;;;1.10;99.90;;;;;;4873301;28;94739;-30
2023/12/07 06:30:01;;;;;;;20.73;12.98;;;1.10;99.90;;;;;;4879909;28;94691;-32
2023/12/07 06:32:27;;;;;;;19.30;14.40;;;1.10;99.90;;;;;;4878825;28;93138;-31
2023/12/07 06:34:52;;;;;;;20.35;14.10;;;1.00;99.90;;;;;;4880300;28;94721;-30
2023/12/07 06:37:20;;;;;;;21.02;14.02;;;1.00;99.90;;;;;;4879256;28;94958;-29
2023/12/07 06:39:45;;;;;;;23.77;14.07;;;1.00;99.90;;;;;;4880481;28;92160;-33
2023/12/07 06:42:11;;;;;;;25.92;13.23;;;1.00;99.90;;;;;;4878652;28;93174;-32
2023/12/07 06:44:37;;;;;;;21.95;13.70;;;0.90;99.90;;;;;;4879110;28;95836;-33
2023/12/07 06:47:04;;;;;;;18.08;12.63;;;0.90;99.90;;;;;;4879374;28;95510;-30
2023/12/07 06:49:30;;;;;;;25.98;15.85;;;0.90;99.90;;;;;;4879566;28;93833;-31
2023/12/07 06:51:56;;;;;;;22.73;14.85;;;0.90;99.90;;;;;;4878603;28;93932;-32
2023/12/07 06:54:21;;;;;;;23.08;12.65;;;0.90;99.90;;;;;;4879555;28;94632;-30
2023/12/07 06:56:47;;;;;;;25.10;13.63;;;0.90;99.90;;;;;;4877885;28;94507;-30
2023/12/07 06:59:13;;;;;;;23.08;15.00;;;0.90;99.90;;;;;;4879794;28;94518;-30
2023/12/07 07:01:39;;;;;;;22.35;13.00;;;0.90;99.90;;;;;;4879448;28;92600;-29
2023/12/07 07:04:05;;;;;;;20.80;13.27;;;0.90;99.90;;;;;;4879015;28;95105;-32
2023/12/07 07:06:30;;;;;;;18.17;14.52;;;0.90;99.90;;;;;;4877235;28;94318;-30
2023/12/07 07:08:56;;;;;;;22.27;13.05;;;0.90;99.90;;;;;;4876939;28;94166;-32
2023/12/07 07:11:22;;;;;;;19.50;14.32;;;0.90;99.90;;;;;;4878241;28;92105;-29
2023/12/07 07:13:47;;;;;;;21.45;14.73;;;0.90;99.90;;;;;;4879171;28;94605;-32
2023/12/07 07:16:13;;;;;;;25.20;16.02;;;0.90;99.90;;;;;;4879054;28;94519;-32
2023/12/07 07:18:39;;;;;;;17.60;12.48;;;0.90;99.90;;;;;;4879093;28;92772;-30
2023/12/07 07:21:06;;;;;;;20.80;12.07;;;0.90;99.90;;;;;;4877794;28;94142;-33
2023/12/07 07:23:31;;;;;;;20.75;12.05;;;0.90;99.90;;;;;;4879375;28;95337;-29
2023/12/07 07:25:57;;;;;;;17.55;11.25;;;0.90;99.90;;;;;;4878682;28;94640;-32
2023/12/07 07:28:22;;;;;;;22.48;15.23;;;0.90;99.90;;;;;;4879191;28;92205;-31
2023/12/07 07:30:48;;;;;;;23.20;13.05;;;1.00;99.90;;;;;;4878637;28;94636;-29
2023/12/07 07:33:13;;;;;;;21.58;13.27;;;1.00;99.90;;;;;;4899173;23;96316;-30
2023/12/07 07:35:39;;;;;;;33.38;17.55;;;1.00;99.90;;;;;;4859653;28;95544;-29
2023/12/07 07:38:05;;;;;;;24.67;13.43;;;1.00;99.90;;;;;;4859953;28;93102;-31
2023/12/07 07:40:30;;;;;;;17.90;11.55;;;1.00;99.90;;;;;;4859931;28;94165;-30
2023/12/07 07:42:56;;;;;;;22.02;13.77;;;1.00;99.90;;;;;;4859132;28;94799;-29
2023/12/07 07:45:22;;;;;;;20.60;14.55;;;1.00;99.90;;;;;;4859587;28;95835;-31
2023/12/07 07:47:47;;;;;;;22.15;15.07;;;1.00;99.90;;;;;;4860272;28;93088;-30
2023/12/07 07:50:14;;;;;;;22.20;14.48;;;1.00;99.90;;;;;;4859799;28;93165;-31
2023/12/07 07:52:40;;;;;;;22.88;12.80;;;1.00;99.90;;;;;;4859480;28;94782;-33
2023/12/07 07:55:06;;;;;;;21.73;14.23;;;1.00;99.90;;;;;;4858422;28;94302;-31
2023/12/07 07:57:31;;;;;;;23.33;13.43;;;1.00;99.90;;;;;;4859544;28;95449;-33
2023/12/07 07:59:57;;;;;;;29.02;13.20;;;1.00;99.90;;;;;;4858261;28;93483;-32
2023/12/07 08:02:23;;;;;;;20.48;12.07;;;1.00;99.90;;;;;;4859816;28;95049;-31
2023/12/07 08:04:49;;;;;;;18.65;12.38;;;1.10;99.90;;;;;;4858857;28;94914;-32
2023/12/07 08:07:15;;;;;;;24.38;13.13;;;1.10;99.90;;;;;;4859430;28;93017;-30
2023/12/07 08:09:40;;;;;;;19.52;12.75;;;1.10;99.90;;;;;;4863182;28;93790;-34
2023/12/07 08:12:08;;;;;;;23.75;15.02;;;1.10;99.90;;;;;;4862901;28;95139;-32
2023/12/07 08:14:35;;;;;;;21.65;12.68;;;1.10;99.90;;;;;;4862154;28;94964;-33
2023/12/07 08:17:01;;;;;;;24.40;15.65;;;1.20;99.90;;;;;;4862835;28;92279;-31
2023/12/07 08:19:27;;;;;;;20.77;12.82;;;1.20;99.90;;;;;;4862949;28;94560;-30
2023/12/07 08:21:52;;;;;;;21.58;13.57;;;1.20;99.90;;;;;;4859131;28;95823;-30
2023/12/07 08:24:18;;;;;;;24.33;14.93;;;1.20;99.90;;;;;;4862835;28;95505;-31
2023/12/07 08:26:43;;;;;;;24.05;13.77;;;1.20;99.90;;;;;;4863055;28;92918;-31
2023/12/07 08:29:09;;;;;;;20.02;13.18;;;1.20;99.90;;;;;;4862244;28;94429;-31
2023/12/07 08:31:34;;;;;;;19.88;12.73;;;1.20;99.90;;;;;;4862659;28;95279;-30
2023/12/07 08:34:00;;;;;;;20.92;14.82;;;1.20;99.90;;;;;;4861967;28;94754;-28
2023/12/07 08:36:26;;;;;;;25.08;14.05;;;1.20;99.90;;;;;;4863329;28;93324;-30
2023/12/07 08:38:52;;;;;;;25.38;15.23;;;1.20;99.90;;;;;;4862957;28;93364;-31
2023/12/07 08:41:18;;;;;;;20.48;13.30;;;1.20;99.90;;;;;;4862468;28;95815;-30
2023/12/07 08:43:44;;;;;;;24.55;14.85;;;1.20;99.90;;;;;;4859415;28;95816;-31
2023/12/07 08:46:09;;;;;;;21.65;12.82;;;1.30;99.90;;;;;;4859419;28;94775;-32
2023/12/07 08:48:37;;;;;;;21.73;13.90;;;1.30;99.90;;;;;;4860575;28;92064;-32
2023/12/07 08:51:03;;;;;;;24.55;13.85;;;1.40;99.90;;;;;;4859102;28;94601;-34
2023/12/07 08:53:29;;;;;;;22.05;12.40;;;1.40;99.90;;;;;;4857367;28;94912;-31
2023/12/07 08:55:55;;;;;;;27.17;16.63;;;1.50;99.90;;;;;;4857982;28;93281;-30
2023/12/07 08:58:21;;;;;;;24.38;16.25;;;1.50;99.90;;;;;;4859362;28;94358;-31
2023/12/07 09:00:46;;;;;;;23.42;14.07;;;1.50;99.90;;;;;;4860066;28;94739;-31
2023/12/07 09:03:12;;;;;;;23.33;15.05;;;1.60;99.90;;;;;;4858878;28;94277;-30
2023/12/07 09:05:37;;;;;;;24.40;16.27;;;1.60;99.90;;;;;;4860036;28;94211;-34
2023/12/07 09:08:03;;;;;;;27.98;15.98;;;1.70;99.90;;;;;;4854198;28;94389;-31
2023/12/07 09:10:29;;;;;;;26.83;16.52;;;1.70;99.90;;;;;;4859452;28;93578;-30
2023/12/07 09:12:54;;;;;;;23.98;15.48;;;1.70;99.90;;;;;;4859393;28;95674;-30
2023/12/07 09:15:21;;;;;;;25.02;17.58;;;1.70;99.90;;;;;;4860154;28;94363;-30
2023/12/07 09:17:48;;;;;;;23.95;14.80;;;1.70;99.90;;;;;;4859504;28;92315;-33
2023/12/07 09:20:14;;;;;;;26.13;19.35;;;1.70;99.90;;;;;;4858782;28;94218;-30
2023/12/07 09:22:43;;;;;;;25.10;15.82;;;1.60;99.90;;;;;;4857802;28;94245;-31
2023/12/07 09:25:10;;;;;;;25.27;17.02;;;1.60;99.90;;;;;;4859440;28;96494;-30
2023/12/07 09:27:39;;;;;;;28.30;14.75;;;1.60;99.90;;;;;;4859569;28;92390;-31
2023/12/07 09:30:06;;;;;;;29.20;14.93;;;1.60;99.90;;;;;;4859269;28;94926;-30
2023/12/07 09:32:32;;;;;;;32.38;19.27;;;1.50;99.90;;;;;;4858534;28;94670;-28
2023/12/07 09:34:57;;;;;;;25.65;17.60;;;1.50;99.90;;;;;;4858175;28;94224;-32
2023/12/07 09:37:23;;;;;;;26.98;16.13;;;1.50;99.90;;;;;;4859482;28;94120;-31
2023/12/07 09:39:49;;;;;;;29.13;18.77;;;1.50;99.90;;;;;;4858410;28;94374;-31
2023/12/07 09:42:14;;;;;;;31.98;20.17;;;1.50;99.90;;;;;;4859124;28;95088;-31
2023/12/07 09:44:40;;;;;;;23.10;14.70;;;1.50;99.90;;;;;;4859218;28;92833;-31
2023/12/07 09:47:06;;;;;;;28.73;16.27;;;1.50;99.90;;;;;;4857910;28;93843;-32
2023/12/07 09:49:31;;;;;;;61.10;17.52;;;1.50;99.90;;;;;;4859190;28;94776;-31
2023/12/07 09:52:00;;;;;;;58.45;17.30;;;1.40;99.90;;;;;;4859049;28;94675;-31
2023/12/07 09:54:28;;;;;;;65.47;14.70;;;1.30;99.90;;;;;;4858313;28;93201;-31
2023/12/07 09:56:54;;;;;;;29.53;14.80;;;1.20;99.90;;;;;;4857441;28;94371;-34
2023/12/07 09:59:20;;;;;;;20.75;12.73;;;1.20;99.90;;;;;;4858632;28;95382;-29
2023/12/07 10:01:46;;;;;;;72.78;16.20;;;1.20;99.90;;;;;;4858273;28;95469;-33
2023/12/07 10:04:20;;;;;;;29.13;13.60;;;1.00;99.90;;;;;;4859593;28;92202;-31
2023/12/07 10:06:47;;;;;;;40.50;14.27;;;1.10;99.90;;;;;;4858545;28;94853;-32
2023/12/07 10:09:13;;;;;;;18.25;13.60;;;1.10;99.90;;;;;;4858964;28;93764;-33
2023/12/07 10:11:39;;;;;;;62.65;16.70;;;1.10;99.90;;;;;;4859070;28;94757;-31
2023/12/07 10:14:07;;;;;;;27.02;13.38;;;1.10;99.90;;;;;;4858864;28;93110;-33
2023/12/07 10:16:36;;;;;;;26.30;13.30;;;1.10;99.90;;;;;;4859175;28;93105;-30
2023/12/07 10:19:28;;;;;;;22.83;14.48;;;1.10;99.90;;;;;;4857118;28;94684;-34
2023/12/07 10:21:54;;;;;;;24.10;11.90;;;1.10;99.90;;;;;;4846627;28;94151;-31
2023/12/07 10:24:22;;;;;;;78.65;19.20;;;1.20;99.90;;;;;;4857918;28;95429;-33
2023/12/07 10:26:48;;;;;;;19.17;11.57;;;1.00;99.90;;;;;;4859459;28;93939;-32
2023/12/07 10:29:14;;;;;;;21.15;12.48;;;1.10;99.90;;;;;;4857088;28;95039;-31
2023/12/07 10:31:40;;;;;;;17.40;10.43;;;1.10;99.90;;;;;;4858168;28;94504;-30
2023/12/07 10:34:06;;;;;;;37.30;16.70;;;1.10;99.90;;;;;;4857521;28;92601;-30
2023/12/07 10:36:32;;;;;;;19.05;12.30;;;1.10;99.90;;;;;;4858214;28;92770;-31
2023/12/07 10:38:58;;;;;;;20.10;11.65;;;1.10;99.90;;;;;;4853827;28;94362;-30
2023/12/07 10:41:24;;;;;;;74.10;17.95;;;1.10;99.90;;;;;;4856332;28;95461;-33
2023/12/07 10:43:59;;;;;;;72.80;17.98;;;1.20;99.90;;;;;;4858023;28;94176;-32
2023/12/07 10:46:25;;;;;;;46.80;14.75;;;1.20;99.90;;;;;;4859068;28;93526;-30
2023/12/07 10:49:15;;;;;;;45.78;15.48;;;1.20;99.90;;;;;;4856563;28;95163;-31
2023/12/07 10:51:45;;;;;;;39.25;18.08;;;1.30;99.90;;;;;;4857976;28;95155;-33
2023/12/07 10:54:16;;;;;;;36.40;15.23;;;1.30;99.90;;;;;;4858978;28;95853;-30
2023/12/07 10:56:46;;;;;;;80.97;19.70;;;1.20;99.90;;;;;;4858355;28;94619;-32
2023/12/07 10:59:13;;;;;;;22.80;14.38;;;1.30;99.90;;;;;;4858341;28;95319;-31
2023/12/07 11:01:40;;;;;;;41.42;19.10;;;1.40;99.90;;;;;;4857459;28;94074;-32
2023/12/07 11:04:06;;;;;;;57.97;21.13;;;1.40;99.90;;;;;;4855921;28;93572;-35
2023/12/07 11:06:34;;;;;;;45.10;20.70;;;1.40;99.90;;;;;;4858890;28;92413;-30
2023/12/07 11:09:04;;;;;;;40.13;19.03;;;1.50;99.90;;;;;;4857846;28;96227;-30
2023/12/07 11:11:46;;;;;;;61.75;19.60;;;1.50;99.90;;;;;;4858170;28;94564;-33
2023/12/07 11:14:13;;;;;;;28.30;19.23;;;1.50;99.90;;;;;;4851068;28;95123;-34
2023/12/07 11:16:45;;;;;;;24.33;17.45;;;1.40;99.90;;;;;;4858011;28;92301;-29
2023/12/07 11:19:29;;;;;;;34.45;16.92;;;1.50;99.90;;;;;;4857943;28;95650;-31
2023/12/07 11:21:55;;;;;;;74.85;20.17;;;1.60;99.90;;;;;;4857145;28;94836;-32
2023/12/07 11:24:23;;;;;;;36.13;16.58;;;1.50;99.90;;;;;;4857264;28;93268;-33
2023/12/07 11:26:51;;;;;;;32.05;16.48;;;1.50;99.90;;;;;;4858405;28;94598;-31
2023/12/07 11:29:20;;;;;;;27.83;16.90;;;1.50;99.90;;;;;;4857746;28;94762;-30
2023/12/07 11:31:46;;;;;;;31.60;17.95;;;1.50;99.90;;;;;;4858540;28;94474;-31
2023/12/07 11:34:13;;;;;;;23.35;14.02;;;1.50;99.90;;;;;;4856089;28;93926;-30
2023/12/07 11:36:39;;;;;;;27.90;16.90;;;1.60;99.90;;;;;;4858031;28;93101;-30
2023/12/07 11:39:08;;;;;;;25.08;15.15;;;1.60;99.90;;;;;;4856810;28;96000;-31
2023/12/07 11:41:44;;;;;;;35.08;17.30;;;1.60;99.90;;;;;;4857946;28;96591;-29
2023/12/07 11:44:11;;;;;;;33.22;16.45;;;1.60;99.90;;;;;;4849437;28;93690;-32
2023/12/07 11:46:38;;;;;;;27.98;17.63;;;1.60;99.90;;;;;;4855468;28;93089;-30
2023/12/07 11:49:05;;;;;;;31.13;16.00;;;1.60;99.90;;;;;;4856366;28;93636;-32
2023/12/07 11:51:31;;;;;;;31.95;15.30;;;1.60;99.90;;;;;;4856034;28;94408;-32
2023/12/07 11:53:56;;;;;;;32.33;17.30;;;1.70;99.90;;;;;;4857222;28;93651;-31
2023/12/07 11:56:22;;;;;;;31.23;18.40;;;1.70;99.90;;;;;;4856971;28;92483;-32
2023/12/07 11:58:49;;;;;;;25.65;16.10;;;1.70;99.90;;;;;;4856888;28;94548;-32
2023/12/07 12:01:16;;;;;;;34.03;19.45;;;1.70;99.90;;;;;;4857194;28;93137;-30
2023/12/07 12:03:43;;;;;;;40.40;17.00;;;1.60;99.90;;;;;;4846008;28;93936;-29
2023/12/07 12:06:10;;;;;;;27.58;15.95;;;1.60;99.90;;;;;;4856073;28;92438;-31
2023/12/07 12:08:36;;;;;;;37.35;16.20;;;1.60;99.90;;;;;;4855755;28;94825;-32
2023/12/07 12:11:02;;;;;;;28.75;15.23;;;1.60;99.90;;;;;;4856049;28;96401;-29
2023/12/07 12:13:34;;;;;;;29.95;17.65;;;1.60;99.90;;;;;;4856767;28;93822;-31
2023/12/07 12:16:00;;;;;;;32.30;19.52;;;1.60;99.90;;;;;;4856319;28;94615;-31
2023/12/07 12:18:27;;;;;;;69.05;20.65;;;1.60;99.90;;;;;;4853984;28;96396;-31
2023/12/07 12:20:53;;;;;;;31.27;17.65;;;1.60;99.90;;;;;;4854872;28;94785;-35
2023/12/07 12:23:20;;;;;;;33.03;17.88;;;1.60;99.90;;;;;;4855189;28;93575;-32
2023/12/07 12:25:46;;;;;;;38.22;19.27;;;1.60;99.90;;;;;;4855410;28;92755;-31
2023/12/07 12:28:16;;;;;;;29.77;18.73;;;1.60;99.90;;;;;;4855349;28;94071;-33
2023/12/07 12:30:42;;;;;;;57.25;21.02;;;1.60;99.90;;;;;;4856808;28;95361;-33
2023/12/07 12:33:07;;;;;;;42.10;19.98;;;1.60;99.90;;;;;;4856637;28;93607;-31
2023/12/07 12:35:33;;;;;;;36.72;17.98;;;1.60;99.90;;;;;;4856497;28;92862;-32
2023/12/07 12:37:59;;;;;;;33.97;20.55;;;1.70;99.90;;;;;;4857222;28;94842;-30